sensor_id;sensor_type;location;lat;lon;timestamp;temperature;humidity
71563;DHT22;59391;52.504;13.438;2023-10-31T00:02:07;15.40;64.90
71563;DHT22;59391;52.504;13.438;2023-10-31T00:04:33;15.40;64.90
71563;DHT22;59391;52.504;13.438;2023-10-31T00:06:59;15.30;64.90
71563;DHT22;59391;52.504;13.438;2023-10-31T00:09:25;15.30;65.00
71563;DHT22;59391;52.504;13.438;2023-10-31T00:11:51;15.30;65.10
71563;DHT22;59391;52.504;13.438;2023-10-31T00:14:16;15.30;65.20
71563;DHT22;59391;52.504;13.438;2023-10-31T00:16:42;15.30;65.30
71563;DHT22;59391;52.504;13.438;2023-10-31T00:19:07;15.30;65.30
71563;DHT22;59391;52.504;13.438;2023-10-31T00:21:33;15.20;65.60
71563;DHT22;59391;52.504;13.438;2023-10-31T00:23:59;15.20;65.80
71563;DHT22;59391;52.504;13.438;2023-10-31T00:26:24;15.20;66.10
71563;DHT22;59391;52.504;13.438;2023-10-31T00:28:50;15.20;66.30
71563;DHT22;59391;52.504;13.438;2023-10-31T00:31:15;15.20;66.50
71563;DHT22;59391;52.504;13.438;2023-10-31T00:33:41;15.20;66.60
71563;DHT22;59391;52.504;13.438;2023-10-31T00:36:07;15.20;66.70
71563;DHT22;59391;52.504;13.438;2023-10-31T00:38:33;15.10;67.00
71563;DHT22;59391;52.504;13.438;2023-10-31T00:40:59;15.10;67.20
71563;DHT22;59391;52.504;13.438;2023-10-31T00:43:24;15.10;67.30
71563;DHT22;59391;52.504;13.438;2023-10-31T00:45:50;15.10;67.50
71563;DHT22;59391;52.504;13.438;2023-10-31T00:48:15;15.10;67.50
71563;DHT22;59391;52.504;13.438;2023-10-31T00:50:41;15.10;67.60
71563;DHT22;59391;52.504;13.438;2023-10-31T00:53:07;15.10;67.70
71563;DHT22;59391;52.504;13.438;2023-10-31T00:55:33;15.10;67.70
71563;DHT22;59391;52.504;13.438;2023-10-31T00:57:59;15.00;67.90
71563;DHT22;59391;52.504;13.438;2023-10-31T01:00:24;15.00;67.90
71563;DHT22;59391;52.504;13.438;2023-10-31T01:02:50;15.00;67.80
71563;DHT22;59391;52.504;13.438;2023-10-31T01:05:16;15.00;67.80
71563;DHT22;59391;52.504;13.438;2023-10-31T01:07:41;15.00;67.80
71563;DHT22;59391;52.504;13.438;2023-10-31T01:10:07;15.00;68.00
71563;DHT22;59391;52.504;13.438;2023-10-31T01:12:33;14.90;68.10
71563;DHT22;59391;52.504;13.438;2023-10-31T01:14:59;14.90;68.30
71563;DHT22;59391;52.504;13.438;2023-10-31T01:17:25;14.90;68.50
71563;DHT22;59391;52.504;13.438;2023-10-31T01:19:53;14.90;68.70
71563;DHT22;59391;52.504;13.438;2023-10-31T01:22:19;14.90;68.90
71563;DHT22;59391;52.504;13.438;2023-10-31T01:24:44;14.90;68.90
71563;DHT22;59391;52.504;13.438;2023-10-31T01:27:10;14.90;69.00
71563;DHT22;59391;52.504;13.438;2023-10-31T01:29:35;14.90;69.10
71563;DHT22;59391;52.504;13.438;2023-10-31T01:32:02;14.90;69.30
71563;DHT22;59391;52.504;13.438;2023-10-31T01:34:28;14.90;69.50
71563;DHT22;59391;52.504;13.438;2023-10-31T01:36:54;14.90;69.60
71563;DHT22;59391;52.504;13.438;2023-10-31T01:39:19;14.90;69.60
71563;DHT22;59391;52.504;13.438;2023-10-31T01:41:45;14.90;70.20
71563;DHT22;59391;52.504;13.438;2023-10-31T01:44:10;14.90;70.00
71563;DHT22;59391;52.504;13.438;2023-10-31T01:46:36;14.80;70.00
71563;DHT22;59391;52.504;13.438;2023-10-31T01:49:02;14.80;70.00
71563;DHT22;59391;52.504;13.438;2023-10-31T01:51:28;14.80;70.20
71563;DHT22;59391;52.504;13.438;2023-10-31T01:53:55;14.80;70.40
71563;DHT22;59391;52.504;13.438;2023-10-31T01:56:22;14.80;70.30
71563;DHT22;59391;52.504;13.438;2023-10-31T01:58:49;14.80;70.30
71563;DHT22;59391;52.504;13.438;2023-10-31T02:01:15;14.70;70.30
71563;DHT22;59391;52.504;13.438;2023-10-31T02:03:41;14.70;70.40
71563;DHT22;59391;52.504;13.438;2023-10-31T02:06:07;14.70;70.70
71563;DHT22;59391;52.504;13.438;2023-10-31T02:08:33;14.70;70.90
71563;DHT22;59391;52.504;13.438;2023-10-31T02:10:59;14.70;71.10
71563;DHT22;59391;52.504;13.438;2023-10-31T02:13:25;14.70;71.20
71563;DHT22;59391;52.504;13.438;2023-10-31T02:15:51;14.60;71.40
71563;DHT22;59391;52.504;13.438;2023-10-31T02:18:17;14.60;71.80
71563;DHT22;59391;52.504;13.438;2023-10-31T02:20:43;14.60;71.90
71563;DHT22;59391;52.504;13.438;2023-10-31T02:23:09;14.60;72.00
71563;DHT22;59391;52.504;13.438;2023-10-31T02:25:34;14.60;72.00
71563;DHT22;59391;52.504;13.438;2023-10-31T02:28:00;14.50;72.10
71563;DHT22;59391;52.504;13.438;2023-10-31T02:30:26;14.50;72.30
71563;DHT22;59391;52.504;13.438;2023-10-31T02:32:52;14.50;72.40
71563;DHT22;59391;52.504;13.438;2023-10-31T02:35:18;14.50;72.50
71563;DHT22;59391;52.504;13.438;2023-10-31T02:37:48;14.40;72.60
71563;DHT22;59391;52.504;13.438;2023-10-31T02:40:14;14.40;72.60
71563;DHT22;59391;52.504;13.438;2023-10-31T02:42:40;14.40;72.70
71563;DHT22;59391;52.504;13.438;2023-10-31T02:45:06;14.40;72.90
71563;DHT22;59391;52.504;13.438;2023-10-31T02:47:33;14.40;73.00
71563;DHT22;59391;52.504;13.438;2023-10-31T02:49:58;14.30;73.00
71563;DHT22;59391;52.504;13.438;2023-10-31T02:52:24;14.30;73.10
71563;DHT22;59391;52.504;13.438;2023-10-31T02:54:50;14.30;73.20
71563;DHT22;59391;52.504;13.438;2023-10-31T02:57:16;14.30;73.40
71563;DHT22;59391;52.504;13.438;2023-10-31T02:59:42;14.30;73.50
71563;DHT22;59391;52.504;13.438;2023-10-31T03:02:08;14.30;73.60
71563;DHT22;59391;52.504;13.438;2023-10-31T03:04:33;14.30;73.60
71563;DHT22;59391;52.504;13.438;2023-10-31T03:06:59;14.30;73.60
71563;DHT22;59391;52.504;13.438;2023-10-31T03:09:25;14.20;73.70
71563;DHT22;59391;52.504;13.438;2023-10-31T03:11:50;14.20;73.80
71563;DHT22;59391;52.504;13.438;2023-10-31T03:14:16;14.20;74.00
71563;DHT22;59391;52.504;13.438;2023-10-31T03:16:42;14.20;74.20
71563;DHT22;59391;52.504;13.438;2023-10-31T03:19:07;14.20;74.30
71563;DHT22;59391;52.504;13.438;2023-10-31T03:21:33;14.20;74.50
71563;DHT22;59391;52.504;13.438;2023-10-31T03:23:59;14.20;74.50
71563;DHT22;59391;52.504;13.438;2023-10-31T03:26:24;14.20;74.60
71563;DHT22;59391;52.504;13.438;2023-10-31T03:28:50;14.20;74.70
71563;DHT22;59391;52.504;13.438;2023-10-31T03:31:16;14.20;74.70
71563;DHT22;59391;52.504;13.438;2023-10-31T03:33:42;14.10;74.70
71563;DHT22;59391;52.504;13.438;2023-10-31T03:36:08;14.10;74.90
71563;DHT22;59391;52.504;13.438;2023-10-31T03:38:35;14.10;75.10
71563;DHT22;59391;52.504;13.438;2023-10-31T03:41:01;14.10;75.20
71563;DHT22;59391;52.504;13.438;2023-10-31T03:43:27;14.10;75.30
71563;DHT22;59391;52.504;13.438;2023-10-31T03:45:53;14.00;75.50
71563;DHT22;59391;52.504;13.438;2023-10-31T03:48:19;14.00;75.80
71563;DHT22;59391;52.504;13.438;2023-10-31T03:50:45;14.00;75.80
71563;DHT22;59391;52.504;13.438;2023-10-31T03:53:11;14.00;75.90
71563;DHT22;59391;52.504;13.438;2023-10-31T03:55:36;13.90;76.20
71563;DHT22;59391;52.504;13.438;2023-10-31T03:58:02;13.90;76.30
71563;DHT22;59391;52.504;13.438;2023-10-31T04:00:28;13.90;76.60
71563;DHT22;59391;52.504;13.438;2023-10-31T04:02:53;13.80;76.80
71563;DHT22;59391;52.504;13.438;2023-10-31T04:05:19;13.80;76.70
71563;DHT22;59391;52.504;13.438;2023-10-31T04:07:48;13.80;77.00
71563;DHT22;59391;52.504;13.438;2023-10-31T04:10:14;13.80;77.20
71563;DHT22;59391;52.504;13.438;2023-10-31T04:12:41;13.80;77.20
71563;DHT22;59391;52.504;13.438;2023-10-31T04:15:08;13.70;77.40
71563;DHT22;59391;52.504;13.438;2023-10-31T04:17:34;13.70;77.50
71563;DHT22;59391;52.504;13.438;2023-10-31T04:20:00;13.70;77.40
71563;DHT22;59391;52.504;13.438;2023-10-31T04:22:26;13.70;77.70
71563;DHT22;59391;52.504;13.438;2023-10-31T04:24:51;13.70;77.80
71563;DHT22;59391;52.504;13.438;2023-10-31T04:27:17;13.70;78.00
71563;DHT22;59391;52.504;13.438;2023-10-31T04:29:43;13.70;78.10
71563;DHT22;59391;52.504;13.438;2023-10-31T04:32:09;13.70;78.30
71563;DHT22;59391;52.504;13.438;2023-10-31T04:34:35;13.70;78.50
71563;DHT22;59391;52.504;13.438;2023-10-31T04:37:01;13.70;78.60
71563;DHT22;59391;52.504;13.438;2023-10-31T04:39:27;13.70;78.70
71563;DHT22;59391;52.504;13.438;2023-10-31T04:41:52;13.70;78.80
71563;DHT22;59391;52.504;13.438;2023-10-31T04:44:18;13.70;78.80
71563;DHT22;59391;52.504;13.438;2023-10-31T04:46:44;13.80;78.80
71563;DHT22;59391;52.504;13.438;2023-10-31T04:49:09;13.70;78.80
71563;DHT22;59391;52.504;13.438;2023-10-31T04:51:36;13.80;78.90
71563;DHT22;59391;52.504;13.438;2023-10-31T04:54:03;13.80;78.90
71563;DHT22;59391;52.504;13.438;2023-10-31T04:56:29;13.90;79.00
71563;DHT22;59391;52.504;13.438;2023-10-31T04:58:55;13.90;78.90
71563;DHT22;59391;52.504;13.438;2023-10-31T05:01:20;13.90;78.80
71563;DHT22;59391;52.504;13.438;2023-10-31T05:03:46;13.90;79.00
71563;DHT22;59391;52.504;13.438;2023-10-31T05:06:12;13.90;79.00
71563;DHT22;59391;52.504;13.438;2023-10-31T05:08:37;14.00;78.90
71563;DHT22;59391;52.504;13.438;2023-10-31T05:11:03;14.00;79.00
71563;DHT22;59391;52.504;13.438;2023-10-31T05:13:29;14.00;79.00
71563;DHT22;59391;52.504;13.438;2023-10-31T05:15:58;14.00;79.10
71563;DHT22;59391;52.504;13.438;2023-10-31T05:18:23;14.00;79.10
71563;DHT22;59391;52.504;13.438;2023-10-31T05:20:49;14.10;79.10
71563;DHT22;59391;52.504;13.438;2023-10-31T05:23:15;14.10;79.10
71563;DHT22;59391;52.504;13.438;2023-10-31T05:25:40;14.10;79.10
71563;DHT22;59391;52.504;13.438;2023-10-31T05:28:06;14.10;79.00
71563;DHT22;59391;52.504;13.438;2023-10-31T05:30:31;14.20;79.00
71563;DHT22;59391;52.504;13.438;2023-10-31T05:32:57;14.20;79.00
71563;DHT22;59391;52.504;13.438;2023-10-31T05:35:23;14.20;79.00
71563;DHT22;59391;52.504;13.438;2023-10-31T05:37:48;14.20;79.00
71563;DHT22;59391;52.504;13.438;2023-10-31T05:40:15;14.20;79.10
71563;DHT22;59391;52.504;13.438;2023-10-31T05:42:41;14.20;79.20
71563;DHT22;59391;52.504;13.438;2023-10-31T05:45:07;14.30;79.10
71563;DHT22;59391;52.504;13.438;2023-10-31T05:47:33;14.30;79.10
71563;DHT22;59391;52.504;13.438;2023-10-31T05:49:59;14.30;79.10
71563;DHT22;59391;52.504;13.438;2023-10-31T05:52:28;14.30;79.20
71563;DHT22;59391;52.504;13.438;2023-10-31T05:54:55;14.30;79.20
71563;DHT22;59391;52.504;13.438;2023-10-31T05:57:21;14.30;79.20
71563;DHT22;59391;52.504;13.438;2023-10-31T05:59:47;14.30;79.20
71563;DHT22;59391;52.504;13.438;2023-10-31T06:02:14;14.40;79.20
71563;DHT22;59391;52.504;13.438;2023-10-31T06:04:39;14.40;79.30
71563;DHT22;59391;52.504;13.438;2023-10-31T06:07:06;14.40;79.10
71563;DHT22;59391;52.504;13.438;2023-10-31T06:09:32;14.40;79.20
71563;DHT22;59391;52.504;13.438;2023-10-31T06:12:00;14.40;79.20
71563;DHT22;59391;52.504;13.438;2023-10-31T06:14:29;14.40;79.30
71563;DHT22;59391;52.504;13.438;2023-10-31T06:16:54;14.40;79.40
71563;DHT22;59391;52.504;13.438;2023-10-31T06:19:22;14.40;79.40
71563;DHT22;59391;52.504;13.438;2023-10-31T06:21:47;14.40;79.40
71563;DHT22;59391;52.504;13.438;2023-10-31T06:24:13;14.40;79.40
71563;DHT22;59391;52.504;13.438;2023-10-31T06:26:39;14.40;79.60
71563;DHT22;59391;52.504;13.438;2023-10-31T06:29:05;14.40;79.70
71563;DHT22;59391;52.504;13.438;2023-10-31T06:31:30;14.40;80.00
71563;DHT22;59391;52.504;13.438;2023-10-31T06:33:56;14.40;80.10
71563;DHT22;59391;52.504;13.438;2023-10-31T06:36:22;14.40;80.10
71563;DHT22;59391;52.504;13.438;2023-10-31T06:38:47;14.40;80.20
71563;DHT22;59391;52.504;13.438;2023-10-31T06:41:13;14.40;80.20
71563;DHT22;59391;52.504;13.438;2023-10-31T06:43:39;14.40;80.40
71563;DHT22;59391;52.504;13.438;2023-10-31T06:46:04;14.40;80.40
71563;DHT22;59391;52.504;13.438;2023-10-31T06:48:31;14.40;80.60
71563;DHT22;59391;52.504;13.438;2023-10-31T06:50:56;14.50;80.60
71563;DHT22;59391;52.504;13.438;2023-10-31T06:53:22;14.50;80.50
71563;DHT22;59391;52.504;13.438;2023-10-31T06:55:47;14.50;80.60
71563;DHT22;59391;52.504;13.438;2023-10-31T06:58:13;14.50;80.50
71563;DHT22;59391;52.504;13.438;2023-10-31T07:00:40;14.60;80.80
71563;DHT22;59391;52.504;13.438;2023-10-31T07:03:05;14.60;80.80
71563;DHT22;59391;52.504;13.438;2023-10-31T07:05:35;14.60;80.50
71563;DHT22;59391;52.504;13.438;2023-10-31T07:08:01;14.60;80.70
71563;DHT22;59391;52.504;13.438;2023-10-31T07:10:28;14.60;80.80
71563;DHT22;59391;52.504;13.438;2023-10-31T07:12:54;14.70;80.80
71563;DHT22;59391;52.504;13.438;2023-10-31T07:15:20;14.60;80.60
71563;DHT22;59391;52.504;13.438;2023-10-31T07:17:46;14.70;81.00
71563;DHT22;59391;52.504;13.438;2023-10-31T07:20:13;14.70;80.90
71563;DHT22;59391;52.504;13.438;2023-10-31T07:22:39;14.70;80.60
71563;DHT22;59391;52.504;13.438;2023-10-31T07:25:07;14.70;80.70
71563;DHT22;59391;52.504;13.438;2023-10-31T07:27:33;14.70;80.80
71563;DHT22;59391;52.504;13.438;2023-10-31T07:29:59;14.70;80.90
71563;DHT22;59391;52.504;13.438;2023-10-31T07:32:25;14.70;80.80
71563;DHT22;59391;52.504;13.438;2023-10-31T07:34:51;14.70;80.30
71563;DHT22;59391;52.504;13.438;2023-10-31T07:37:18;14.70;80.10
71563;DHT22;59391;52.504;13.438;2023-10-31T07:39:43;14.70;78.90
71563;DHT22;59391;52.504;13.438;2023-10-31T07:42:09;14.60;77.90
71563;DHT22;59391;52.504;13.438;2023-10-31T07:44:35;14.60;78.00
71563;DHT22;59391;52.504;13.438;2023-10-31T07:47:01;14.60;77.30
71563;DHT22;59391;52.504;13.438;2023-10-31T07:49:27;14.50;76.30
71563;DHT22;59391;52.504;13.438;2023-10-31T07:51:52;14.50;75.40
71563;DHT22;59391;52.504;13.438;2023-10-31T07:54:18;14.50;75.10
71563;DHT22;59391;52.504;13.438;2023-10-31T07:56:44;14.50;75.10
71563;DHT22;59391;52.504;13.438;2023-10-31T07:59:10;14.40;75.10
71563;DHT22;59391;52.504;13.438;2023-10-31T08:01:36;14.40;75.20
71563;DHT22;59391;52.504;13.438;2023-10-31T08:04:02;14.40;74.70
71563;DHT22;59391;52.504;13.438;2023-10-31T08:06:28;14.40;73.30
71563;DHT22;59391;52.504;13.438;2023-10-31T08:08:54;14.40;73.80
71563;DHT22;59391;52.504;13.438;2023-10-31T08:11:22;14.40;72.30
71563;DHT22;59391;52.504;13.438;2023-10-31T08:13:47;14.40;72.70
71563;DHT22;59391;52.504;13.438;2023-10-31T08:16:20;14.40;72.90
71563;DHT22;59391;52.504;13.438;2023-10-31T08:18:46;14.40;73.00
71563;DHT22;59391;52.504;13.438;2023-10-31T08:21:12;14.40;72.30
71563;DHT22;59391;52.504;13.438;2023-10-31T08:23:38;14.40;71.30
71563;DHT22;59391;52.504;13.438;2023-10-31T08:26:04;14.50;71.90
71563;DHT22;59391;52.504;13.438;2023-10-31T08:28:30;14.50;72.40
71563;DHT22;59391;52.504;13.438;2023-10-31T08:30:56;14.50;69.30
71563;DHT22;59391;52.504;13.438;2023-10-31T08:33:23;14.50;69.80
71563;DHT22;59391;52.504;13.438;2023-10-31T08:35:49;14.50;68.30
71563;DHT22;59391;52.504;13.438;2023-10-31T08:38:15;14.50;69.60
71563;DHT22;59391;52.504;13.438;2023-10-31T08:40:41;14.50;68.40
71563;DHT22;59391;52.504;13.438;2023-10-31T08:43:07;14.50;68.40
71563;DHT22;59391;52.504;13.438;2023-10-31T08:45:33;14.50;67.90
71563;DHT22;59391;52.504;13.438;2023-10-31T08:47:59;14.60;68.80
71563;DHT22;59391;52.504;13.438;2023-10-31T08:50:25;14.70;67.40
71563;DHT22;59391;52.504;13.438;2023-10-31T08:52:51;14.70;67.10
71563;DHT22;59391;52.504;13.438;2023-10-31T08:55:17;14.80;67.10
71563;DHT22;59391;52.504;13.438;2023-10-31T08:57:43;14.80;65.40
71563;DHT22;59391;52.504;13.438;2023-10-31T09:00:08;14.90;64.90
71563;DHT22;59391;52.504;13.438;2023-10-31T09:02:34;14.90;65.80
71563;DHT22;59391;52.504;13.438;2023-10-31T09:05:00;14.90;65.00
71563;DHT22;59391;52.504;13.438;2023-10-31T09:07:26;14.90;64.90
71563;DHT22;59391;52.504;13.438;2023-10-31T09:09:52;14.90;64.40
71563;DHT22;59391;52.504;13.438;2023-10-31T09:12:18;15.00;64.20
71563;DHT22;59391;52.504;13.438;2023-10-31T09:14:43;15.00;64.20
71563;DHT22;59391;52.504;13.438;2023-10-31T09:17:09;15.00;63.30
71563;DHT22;59391;52.504;13.438;2023-10-31T09:19:34;15.00;63.20
71563;DHT22;59391;52.504;13.438;2023-10-31T09:22:00;15.00;63.00
71563;DHT22;59391;52.504;13.438;2023-10-31T09:24:26;15.00;62.00
71563;DHT22;59391;52.504;13.438;2023-10-31T09:26:51;15.00;61.60
71563;DHT22;59391;52.504;13.438;2023-10-31T09:29:17;15.10;61.70
71563;DHT22;59391;52.504;13.438;2023-10-31T09:31:43;15.20;61.80
71563;DHT22;59391;52.504;13.438;2023-10-31T09:34:08;15.40;59.60
71563;DHT22;59391;52.504;13.438;2023-10-31T09:36:35;15.50;59.50
71563;DHT22;59391;52.504;13.438;2023-10-31T09:39:01;15.60;59.40
71563;DHT22;59391;52.504;13.438;2023-10-31T09:41:26;15.70;58.70
71563;DHT22;59391;52.504;13.438;2023-10-31T09:43:53;15.70;58.90
71563;DHT22;59391;52.504;13.438;2023-10-31T09:46:21;15.70;58.50
71563;DHT22;59391;52.504;13.438;2023-10-31T09:48:48;15.70;58.00
71563;DHT22;59391;52.504;13.438;2023-10-31T09:51:14;15.60;57.50
71563;DHT22;59391;52.504;13.438;2023-10-31T09:53:41;15.50;56.60
71563;DHT22;59391;52.504;13.438;2023-10-31T09:56:10;15.40;57.70
71563;DHT22;59391;52.504;13.438;2023-10-31T09:58:36;15.40;58.10
71563;DHT22;59391;52.504;13.438;2023-10-31T10:01:02;15.30;58.00
71563;DHT22;59391;52.504;13.438;2023-10-31T10:03:28;15.30;58.70
71563;DHT22;59391;52.504;13.438;2023-10-31T10:05:54;15.30;58.70
71563;DHT22;59391;52.504;13.438;2023-10-31T10:08:20;15.30;57.80
71563;DHT22;59391;52.504;13.438;2023-10-31T10:10:46;15.30;58.10
71563;DHT22;59391;52.504;13.438;2023-10-31T10:13:12;15.30;58.10
71563;DHT22;59391;52.504;13.438;2023-10-31T10:15:49;15.30;58.00
71563;DHT22;59391;52.504;13.438;2023-10-31T10:18:34;15.30;57.60
71563;DHT22;59391;52.504;13.438;2023-10-31T10:21:03;15.30;57.90
71563;DHT22;59391;52.504;13.438;2023-10-31T10:23:31;15.30;57.10
71563;DHT22;59391;52.504;13.438;2023-10-31T10:25:58;15.30;58.30
71563;DHT22;59391;52.504;13.438;2023-10-31T10:28:25;15.30;58.50
71563;DHT22;59391;52.504;13.438;2023-10-31T10:30:53;15.40;58.50
71563;DHT22;59391;52.504;13.438;2023-10-31T10:33:20;15.40;57.60
71563;DHT22;59391;52.504;13.438;2023-10-31T10:35:48;15.50;58.00
71563;DHT22;59391;52.504;13.438;2023-10-31T10:38:18;15.50;58.10
71563;DHT22;59391;52.504;13.438;2023-10-31T10:40:46;15.50;57.70
71563;DHT22;59391;52.504;13.438;2023-10-31T10:43:22;15.50;57.60
71563;DHT22;59391;52.504;13.438;2023-10-31T10:45:58;15.60;57.30
71563;DHT22;59391;52.504;13.438;2023-10-31T10:48:28;15.70;56.60
71563;DHT22;59391;52.504;13.438;2023-10-31T10:51:11;15.80;55.90
71563;DHT22;59391;52.504;13.438;2023-10-31T10:53:57;15.90;55.70
71563;DHT22;59391;52.504;13.438;2023-10-31T10:56:30;15.90;55.70
71563;DHT22;59391;52.504;13.438;2023-10-31T10:59:07;16.00;54.70
71563;DHT22;59391;52.504;13.438;2023-10-31T11:01:41;16.00;55.20
71563;DHT22;59391;52.504;13.438;2023-10-31T11:04:08;16.00;54.80
71563;DHT22;59391;52.504;13.438;2023-10-31T11:06:37;16.00;53.90
71563;DHT22;59391;52.504;13.438;2023-10-31T11:09:04;16.00;54.40
71563;DHT22;59391;52.504;13.438;2023-10-31T11:11:32;16.00;54.40
71563;DHT22;59391;52.504;13.438;2023-10-31T11:14:00;16.00;54.70
71563;DHT22;59391;52.504;13.438;2023-10-31T11:16:33;16.00;54.80
71563;DHT22;59391;52.504;13.438;2023-10-31T11:19:07;16.00;54.50
71563;DHT22;59391;52.504;13.438;2023-10-31T11:21:35;16.00;54.20
71563;DHT22;59391;52.504;13.438;2023-10-31T11:24:01;16.00;54.20
71563;DHT22;59391;52.504;13.438;2023-10-31T11:26:27;16.00;54.30
71563;DHT22;59391;52.504;13.438;2023-10-31T11:29:13;15.90;54.30
71563;DHT22;59391;52.504;13.438;2023-10-31T11:31:39;15.80;54.60
71563;DHT22;59391;52.504;13.438;2023-10-31T11:34:06;15.80;54.90
71563;DHT22;59391;52.504;13.438;2023-10-31T11:36:31;15.80;55.10
71563;DHT22;59391;52.504;13.438;2023-10-31T11:39:14;15.80;55.10
71563;DHT22;59391;52.504;13.438;2023-10-31T11:41:47;15.70;55.20
71563;DHT22;59391;52.504;13.438;2023-10-31T11:44:16;15.70;55.60
71563;DHT22;59391;52.504;13.438;2023-10-31T11:46:42;15.70;55.60
71563;DHT22;59391;52.504;13.438;2023-10-31T11:49:08;15.70;56.10
71563;DHT22;59391;52.504;13.438;2023-10-31T11:51:34;15.70;56.30
71563;DHT22;59391;52.504;13.438;2023-10-31T11:54:02;15.70;56.00
71563;DHT22;59391;52.504;13.438;2023-10-31T11:56:28;15.70;56.30
71563;DHT22;59391;52.504;13.438;2023-10-31T11:59:02;15.70;56.40
71563;DHT22;59391;52.504;13.438;2023-10-31T12:01:29;15.80;56.90
71563;DHT22;59391;52.504;13.438;2023-10-31T12:03:55;15.90;56.10
71563;DHT22;59391;52.504;13.438;2023-10-31T12:06:21;16.10;55.60
71563;DHT22;59391;52.504;13.438;2023-10-31T12:08:47;16.30;54.60
71563;DHT22;59391;52.504;13.438;2023-10-31T12:11:14;16.50;53.80
71563;DHT22;59391;52.504;13.438;2023-10-31T12:13:54;16.50;53.00
71563;DHT22;59391;52.504;13.438;2023-10-31T12:16:28;16.60;52.40
71563;DHT22;59391;52.504;13.438;2023-10-31T12:18:56;16.60;52.10
71563;DHT22;59391;52.504;13.438;2023-10-31T12:21:42;16.60;52.10
71563;DHT22;59391;52.504;13.438;2023-10-31T12:24:10;16.60;52.10
71563;DHT22;59391;52.504;13.438;2023-10-31T12:26:37;16.50;51.90
71563;DHT22;59391;52.504;13.438;2023-10-31T12:29:20;16.50;52.40
71563;DHT22;59391;52.504;13.438;2023-10-31T12:31:53;16.40;52.50
71563;DHT22;59391;52.504;13.438;2023-10-31T12:34:21;16.40;52.60
71563;DHT22;59391;52.504;13.438;2023-10-31T12:36:49;16.30;52.50
71563;DHT22;59391;52.504;13.438;2023-10-31T12:39:18;16.30;52.80
71563;DHT22;59391;52.504;13.438;2023-10-31T12:41:47;16.20;52.60
71563;DHT22;59391;52.504;13.438;2023-10-31T12:44:17;16.10;52.50
71563;DHT22;59391;52.504;13.438;2023-10-31T12:46:48;16.10;52.90
71563;DHT22;59391;52.504;13.438;2023-10-31T12:49:18;16.10;52.60
71563;DHT22;59391;52.504;13.438;2023-10-31T12:51:56;16.10;52.70
71563;DHT22;59391;52.504;13.438;2023-10-31T12:54:33;16.00;52.50
71563;DHT22;59391;52.504;13.438;2023-10-31T12:57:06;16.00;53.00
71563;DHT22;59391;52.504;13.438;2023-10-31T12:59:34;16.00;52.90
71563;DHT22;59391;52.504;13.438;2023-10-31T13:02:04;15.90;53.00
71563;DHT22;59391;52.504;13.438;2023-10-31T13:04:32;15.90;53.00
71563;DHT22;59391;52.504;13.438;2023-10-31T13:07:03;15.90;53.20
71563;DHT22;59391;52.504;13.438;2023-10-31T13:09:37;15.90;53.20
71563;DHT22;59391;52.504;13.438;2023-10-31T13:12:08;15.90;53.20
71563;DHT22;59391;52.504;13.438;2023-10-31T13:14:36;15.90;52.80
71563;DHT22;59391;52.504;13.438;2023-10-31T13:17:03;15.90;53.00
71563;DHT22;59391;52.504;13.438;2023-10-31T13:19:29;15.90;53.40
71563;DHT22;59391;52.504;13.438;2023-10-31T13:21:54;15.90;53.40
71563;DHT22;59391;52.504;13.438;2023-10-31T13:24:20;15.90;53.60
71563;DHT22;59391;52.504;13.438;2023-10-31T13:26:46;15.80;53.50
71563;DHT22;59391;52.504;13.438;2023-10-31T13:29:18;15.80;53.60
71563;DHT22;59391;52.504;13.438;2023-10-31T13:31:44;15.80;53.70
71563;DHT22;59391;52.504;13.438;2023-10-31T13:34:10;15.80;53.90
71563;DHT22;59391;52.504;13.438;2023-10-31T13:36:36;15.80;54.20
71563;DHT22;59391;52.504;13.438;2023-10-31T13:39:03;15.80;54.40
71563;DHT22;59391;52.504;13.438;2023-10-31T13:41:29;15.80;54.60
71563;DHT22;59391;52.504;13.438;2023-10-31T13:43:55;15.80;54.40
71563;DHT22;59391;52.504;13.438;2023-10-31T13:46:20;15.80;54.50
71563;DHT22;59391;52.504;13.438;2023-10-31T13:48:46;15.70;54.70
71563;DHT22;59391;52.504;13.438;2023-10-31T13:51:12;15.70;55.00
71563;DHT22;59391;52.504;13.438;2023-10-31T13:53:37;15.70;55.80
71563;DHT22;59391;52.504;13.438;2023-10-31T13:56:03;15.60;56.20
71563;DHT22;59391;52.504;13.438;2023-10-31T13:58:32;15.60;56.40
71563;DHT22;59391;52.504;13.438;2023-10-31T14:00:58;15.50;56.60
71563;DHT22;59391;52.504;13.438;2023-10-31T14:03:23;15.50;57.10
71563;DHT22;59391;52.504;13.438;2023-10-31T14:05:49;15.40;57.60
71563;DHT22;59391;52.504;13.438;2023-10-31T14:08:15;15.40;57.90
71563;DHT22;59391;52.504;13.438;2023-10-31T14:10:40;15.30;58.20
71563;DHT22;59391;52.504;13.438;2023-10-31T14:13:11;15.20;58.30
71563;DHT22;59391;52.504;13.438;2023-10-31T14:15:37;15.20;58.80
71563;DHT22;59391;52.504;13.438;2023-10-31T14:18:03;15.10;58.90
71563;DHT22;59391;52.504;13.438;2023-10-31T14:20:29;15.10;59.30
71563;DHT22;59391;52.504;13.438;2023-10-31T14:22:55;15.10;59.80
71563;DHT22;59391;52.504;13.438;2023-10-31T14:25:20;15.00;60.20
71563;DHT22;59391;52.504;13.438;2023-10-31T14:27:46;14.90;60.80
71563;DHT22;59391;52.504;13.438;2023-10-31T14:30:12;14.90;61.80
71563;DHT22;59391;52.504;13.438;2023-10-31T14:32:38;14.80;62.60
71563;DHT22;59391;52.504;13.438;2023-10-31T14:35:05;14.70;63.00
71563;DHT22;59391;52.504;13.438;2023-10-31T14:37:32;14.70;64.20
71563;DHT22;59391;52.504;13.438;2023-10-31T14:39:58;14.60;64.90
71563;DHT22;59391;52.504;13.438;2023-10-31T14:42:23;14.50;65.20
71563;DHT22;59391;52.504;13.438;2023-10-31T14:44:49;14.40;66.30
71563;DHT22;59391;52.504;13.438;2023-10-31T14:47:15;14.30;66.90
71563;DHT22;59391;52.504;13.438;2023-10-31T14:49:40;14.20;67.40
71563;DHT22;59391;52.504;13.438;2023-10-31T14:52:06;14.10;67.80
71563;DHT22;59391;52.504;13.438;2023-10-31T14:54:33;14.00;68.10
71563;DHT22;59391;52.504;13.438;2023-10-31T14:57:03;14.00;68.40
71563;DHT22;59391;52.504;13.438;2023-10-31T14:59:29;13.90;68.90
71563;DHT22;59391;52.504;13.438;2023-10-31T15:01:55;13.90;69.40
71563;DHT22;59391;52.504;13.438;2023-10-31T15:04:21;13.90;69.60
71563;DHT22;59391;52.504;13.438;2023-10-31T15:06:47;13.80;69.90
71563;DHT22;59391;52.504;13.438;2023-10-31T15:09:13;13.80;70.30
71563;DHT22;59391;52.504;13.438;2023-10-31T15:11:39;13.70;70.20
71563;DHT22;59391;52.504;13.438;2023-10-31T15:14:04;13.70;70.40